Portada
METAR-TAF:

METAR-TAF

Aeroports :

Chesapeake Regional Airport

Norfolk, Virgínia, Estats Units d'Amèrica

latitud: 36-39-56N, longitud: 076-19-14W, altitud: 6 m

Observació

L'informe es va fer fa 30 minuts, a les 02:15 UTC
Vent 10 kt del Sud
Temperatura 25°C
Humitat 74%
Pressió 1012 hPa
Visibilitat: 16.1 km
Núvols disperses a una alçada de 8000 ft
Núvols disperses a una alçada de 9000 ft

METAR: KCPK 210215Z AUTO 19010KT 10SM SCT080 SCT090 25/20 A2988 RMK AO2 T02520196

Hora: 22:45 (02:45 UTC)


TAF: manca

Observacions i pronòstics meteorològics de més de 4000 aeroports (METAR i TAF).

Les estacions disponibles són els punts grocs i vermells al mapa.

Posi el ratolí al punt desitjat per veure el nom de l'estació.

Feu clic per veure les observacions i els pronòstics meteorològics.

Per canviar el mapa: feu clic els botons verds amb una creu de color negre per apropar; al botó verd amb un guió per allunyar la imatge; o en les fletxes verdes per a mapes adjacents.


METAR-TAF: